Time;durP1;ratioP1;P1;durP2;ratioP2;P2;SDS_P1;SDS_P2;PMS_P1;PMS_P2;Temp;Humidity;BMP_temperature;BMP_pressure;BME280_temperature;BME280_humidity;BME280_pressure;Samples;Min_cycle;Max_cycle;Signal;HPM_P1;HPM_P2
2022/03/12 00:01:33;;;;;;;17.17;9.30;;;1.80;39.90;;;;;;5043241;28;20199;-83
2022/03/12 00:04:00;;;;;;;18.25;9.63;;;1.80;39.90;;;;;;5043398;28;20663;-83
2022/03/12 00:06:27;;;;;;;15.00;10.25;;;1.80;40.00;;;;;;5044503;28;20267;-82
2022/03/12 00:08:54;;;;;;;13.60;8.95;;;1.80;40.00;;;;;;5045294;28;20699;-84
2022/03/12 00:11:23;;;;;;;17.55;9.48;;;1.70;39.80;;;;;;5042795;28;20235;-84
2022/03/12 00:13:53;;;;;;;14.40;8.82;;;1.70;40.00;;;;;;5042768;28;20575;-83
2022/03/12 00:16:22;;;;;;;18.52;10.48;;;1.60;40.20;;;;;;5050222;28;20254;-83
2022/03/12 00:18:51;;;;;;;15.52;9.60;;;1.60;40.20;;;;;;5039712;28;20280;-83
2022/03/12 00:21:17;;;;;;;20.20;9.57;;;1.60;40.10;;;;;;5039105;28;20204;-83
2022/03/12 00:23:49;;;;;;;16.23;9.35;;;1.60;40.30;;;;;;5049441;28;20208;-82
2022/03/12 00:26:16;;;;;;;16.33;10.77;;;1.60;40.60;;;;;;5050473;28;20199;-82
2022/03/12 00:28:44;;;;;;;17.05;9.90;;;1.60;40.60;;;;;;5050851;28;20323;-82
2022/03/12 00:31:12;;;;;;;15.23;9.63;;;1.70;41.10;;;;;;5050637;28;20682;-82
2022/03/12 00:33:39;;;;;;;16.45;9.25;;;1.60;40.70;;;;;;5051642;28;20207;-82
2022/03/12 00:36:07;;;;;;;12.68;9.75;;;1.60;40.60;;;;;;5043314;28;20223;-84
2022/03/12 00:38:33;;;;;;;19.13;11.02;;;1.60;40.80;;;;;;5040763;28;20263;-83
2022/03/12 00:41:01;;;;;;;15.07;10.27;;;1.60;41.00;;;;;;5041522;28;20203;-83
2022/03/12 00:43:28;;;;;;;14.60;9.90;;;1.50;41.20;;;;;;5042646;28;20716;-83
2022/03/12 00:45:54;;;;;;;19.70;9.57;;;1.50;41.30;;;;;;5043343;28;20214;-84
2022/03/12 00:48:22;;;;;;;19.27;10.15;;;1.50;41.40;;;;;;5044244;28;20285;-83
2022/03/12 00:50:49;;;;;;;19.67;9.82;;;1.50;41.40;;;;;;5043774;28;20228;-83
2022/03/12 00:53:15;;;;;;;16.88;8.80;;;1.50;41.30;;;;;;5041397;28;20219;-84
2022/03/12 00:55:42;;;;;;;16.48;9.93;;;1.50;41.60;;;;;;5042477;28;20238;-82
2022/03/12 00:58:09;;;;;;;16.92;9.80;;;1.50;48.00;;;;;;5042280;28;20674;-82
2022/03/12 01:00:35;;;;;;;23.70;9.35;;;1.50;42.10;;;;;;5042720;28;20230;-83
2022/03/12 01:03:02;;;;;;;22.80;11.02;;;1.40;42.10;;;;;;5042957;28;20184;-83
2022/03/12 01:05:47;;;;;;;16.80;9.88;;;1.40;42.30;;;;;;5041967;28;20238;-83
2022/03/12 01:08:14;;;;;;;20.75;9.73;;;1.00;56.30;;;;;;5043416;28;20282;-83
2022/03/12 01:10:41;;;;;;;20.20;11.05;;;1.30;42.60;;;;;;5042943;28;20717;-84
2022/03/12 01:13:08;;;;;;;18.83;11.63;;;1.30;42.60;;;;;;5043286;28;20199;-83
2022/03/12 01:15:35;;;;;;;15.73;10.10;;;1.30;42.60;;;;;;5043023;28;20210;-83
2022/03/12 01:18:02;;;;;;;16.60;10.85;;;1.40;56.90;;;;;;5043114;28;20290;-82
2022/03/12 01:20:29;;;;;;;16.90;11.30;;;1.20;43.20;;;;;;5043101;28;20238;-83
2022/03/12 01:22:57;;;;;;;17.38;11.02;;;1.20;43.20;;;;;;5042428;28;20203;-82
2022/03/12 01:25:25;;;;;;;15.85;10.98;;;1.20;43.30;;;;;;5043272;28;20557;-83
2022/03/12 01:27:53;;;;;;;23.35;10.73;;;1.20;43.30;;;;;;5042650;28;20286;-83
2022/03/12 01:30:27;;;;;;;14.48;9.73;;;1.20;43.70;;;;;;5042569;28;20251;-82
2022/03/12 01:32:53;;;;;;;23.45;10.68;;;1.10;43.70;;;;;;5044022;28;20195;-82
2022/03/12 01:35:20;;;;;;;17.67;10.43;;;1.10;43.70;;;;;;5047325;28;20207;-83
2022/03/12 01:37:47;;;;;;;20.52;10.60;;;1.10;43.90;;;;;;5059857;28;20195;-82
2022/03/12 01:40:15;;;;;;;19.33;10.70;;;1.00;43.80;;;;;;5050518;28;20237;-83
2022/03/12 01:42:43;;;;;;;16.05;10.07;;;1.00;43.80;;;;;;5042477;28;20203;-83
2022/03/12 01:45:11;;;;;;;15.20;11.02;;;1.00;44.40;;;;;;5042537;28;20227;-83
2022/03/12 01:47:37;;;;;;;23.70;11.90;;;0.90;44.50;;;;;;5043803;28;20207;-84
2022/03/12 01:50:05;;;;;;;14.20;11.05;;;1.00;44.90;;;;;;5053909;28;20234;-83
2022/03/12 01:52:32;;;;;;;17.65;11.15;;;1.00;45.10;;;;;;5045277;28;20273;-84
2022/03/12 01:54:59;;;;;;;20.13;10.52;;;1.00;46.00;;;;;;5049024;28;20250;-83
2022/03/12 01:57:27;;;;;;;16.17;10.07;;;0.90;45.70;;;;;;5058168;28;20187;-79
2022/03/12 01:59:54;;;;;;;17.25;11.00;;;0.80;45.60;;;;;;5058918;28;20215;-82
2022/03/12 02:02:21;;;;;;;15.23;10.20;;;0.70;45.90;;;;;;5045279;28;20232;-82
2022/03/12 02:04:49;;;;;;;16.90;10.38;;;0.80;45.90;;;;;;5044637;28;20218;-82
2022/03/12 02:07:16;;;;;;;16.85;10.82;;;0.80;45.60;;;;;;5043559;28;20675;-82
2022/03/12 02:09:44;;;;;;;19.88;11.35;;;0.80;45.50;;;;;;5042712;28;20230;-83
2022/03/12 02:12:11;;;;;;;16.45;11.95;;;0.80;45.60;;;;;;5042885;28;20224;-83
2022/03/12 02:14:39;;;;;;;13.35;9.77;;;0.80;45.90;;;;;;5043278;28;20234;-83
2022/03/12 02:17:09;;;;;;;18.58;10.45;;;0.80;45.80;;;;;;5044752;28;20204;-83
2022/03/12 02:19:36;;;;;;;18.98;10.85;;;0.80;46.10;;;;;;5045879;28;20594;-82
2022/03/12 02:22:05;;;;;;;16.52;9.98;;;0.70;46.20;;;;;;5054481;28;20196;-83
2022/03/12 02:24:35;;;;;;;17.02;11.32;;;0.70;46.50;;;;;;5055865;28;20207;-83
2022/03/12 02:27:04;;;;;;;18.65;9.70;;;0.70;46.50;;;;;;5057303;28;20204;-82
2022/03/12 02:29:31;;;;;;;20.65;11.20;;;0.70;46.50;;;;;;5054857;28;20250;-82
2022/03/12 02:32:03;;;;;;;14.48;11.40;;;0.70;46.60;;;;;;5042398;28;20690;-84
2022/03/12 02:34:38;;;;;;;21.17;10.10;;;0.60;47.00;;;;;;5043010;28;20188;-83
2022/03/12 02:37:05;;;;;;;18.83;10.75;;;0.60;47.00;;;;;;5041537;28;20655;-84
2022/03/12 02:39:34;;;;;;;17.38;9.73;;;0.60;47.30;;;;;;5051788;28;20597;-83
2022/03/12 02:42:01;;;;;;;16.58;10.10;;;0.50;47.40;;;;;;5057063;28;20294;-82
2022/03/12 02:44:28;;;;;;;16.58;10.73;;;0.50;47.40;;;;;;5045299;28;20196;-83
2022/03/12 02:47:16;;;;;;;20.75;11.70;;;0.40;48.00;;;;;;5042304;28;20222;-82
2022/03/12 02:49:48;;;;;;;20.67;10.55;;;0.40;47.70;;;;;;5042839;28;20687;-82
2022/03/12 02:52:15;;;;;;;23.55;12.10;;;0.30;48.00;;;;;;5042084;28;20204;-83
2022/03/12 02:54:44;;;;;;;10.70;9.05;;;0.30;48.30;;;;;;5057886;28;20208;-83
2022/03/12 02:57:11;;;;;;;15.82;10.90;;;0.30;48.20;;;;;;5059433;28;20191;-82
2022/03/12 02:59:38;;;;;;;16.05;10.50;;;0.30;62.40;;;;;;5059767;28;20207;-82
2022/03/12 03:02:08;;;;;;;20.20;10.40;;;0.20;48.30;;;;;;5059803;28;20179;-82
2022/03/12 03:04:40;;;;;;;15.95;11.52;;;0.20;48.40;;;;;;5059338;28;20268;-80
2022/03/12 03:07:08;;;;;;;21.08;11.00;;;0.20;48.60;;;;;;5058405;28;20175;-82
2022/03/12 03:09:35;;;;;;;19.92;11.07;;;0.20;48.60;;;;;;5056824;28;20224;-83
2022/03/12 03:12:06;;;;;;;16.63;10.05;;;0.10;49.20;;;;;;5056766;28;20227;-83
2022/03/12 03:14:33;;;;;;;14.95;9.80;;;0.20;48.90;;;;;;5046342;28;20192;-83
2022/03/12 03:17:01;;;;;;;16.85;10.45;;;0.20;48.90;;;;;;5056025;28;20194;-83
2022/03/12 03:19:28;;;;;;;19.30;11.20;;;0.10;49.00;;;;;;5046497;28;20223;-83
2022/03/12 03:21:56;;;;;;;14.55;9.27;;;0.10;49.30;;;;;;5041980;28;20200;-83
2022/03/12 03:24:24;;;;;;;18.35;9.48;;;0.10;49.20;;;;;;5039304;28;20208;-83
2022/03/12 03:26:56;;;;;;;17.92;10.35;;;0.00;49.20;;;;;;5040969;28;20203;-83
2022/03/12 03:29:26;;;;;;;15.93;10.88;;;0.00;49.10;;;;;;5040105;28;20592;-83
2022/03/12 03:31:53;;;;;;;13.40;10.20;;;0.00;49.60;;;;;;5040047;28;20204;-83
2022/03/12 03:34:21;;;;;;;18.80;11.15;;;0.00;49.80;;;;;;5040853;28;20597;-83
2022/03/12 03:36:48;;;;;;;20.42;11.20;;;0.00;49.80;;;;;;5039948;28;20203;-83
2022/03/12 03:39:15;;;;;;;15.52;10.45;;;-0.10;49.90;;;;;;5039690;28;20234;-83
2022/03/12 03:41:43;;;;;;;16.58;10.55;;;-0.10;50.20;;;;;;5041468;28;20207;-84
2022/03/12 03:44:10;;;;;;;17.15;10.05;;;-0.10;50.20;;;;;;5041874;28;20211;-83
2022/03/12 03:46:38;;;;;;;14.07;9.35;;;-0.10;50.10;;;;;;5039618;28;20733;-82
2022/03/12 03:49:05;;;;;;;16.85;10.55;;;-0.10;50.60;;;;;;5039761;28;20227;-83
2022/03/12 03:51:37;;;;;;;17.92;9.93;;;-0.10;50.80;;;;;;5040110;28;20231;-83
2022/03/12 03:54:06;;;;;;;21.88;11.45;;;-0.10;50.90;;;;;;5040525;28;20210;-83
2022/03/12 03:56:33;;;;;;;15.57;9.90;;;-0.20;51.50;;;;;;5050137;28;20190;-85
2022/03/12 03:58:59;;;;;;;16.98;9.90;;;-0.20;51.00;;;;;;5053538;28;20729;-87
2022/03/12 04:01:26;;;;;;;17.33;11.60;;;-0.20;51.60;;;;;;5039430;28;20638;-88
2022/03/12 04:03:54;;;;;;;20.85;10.52;;;-0.30;51.80;;;;;;5041687;28;20210;-88
2022/03/12 04:06:24;;;;;;;17.50;10.32;;;-0.20;51.70;;;;;;5039907;28;20266;-88
2022/03/12 04:08:52;;;;;;;21.08;11.90;;;-0.30;51.70;;;;;;5039920;28;20240;-87
2022/03/12 04:11:20;;;;;;;14.93;9.68;;;-0.30;51.90;;;;;;5038131;28;20273;-88
2022/03/12 04:13:47;;;;;;;13.15;10.07;;;-0.30;51.90;;;;;;5038953;28;20625;-88
2022/03/12 04:16:14;;;;;;;18.40;10.52;;;-0.40;52.60;;;;;;5038730;28;20200;-87
2022/03/12 04:18:46;;;;;;;15.38;10.40;;;-0.30;52.00;;;;;;5037321;28;20219;-87
2022/03/12 04:21:16;;;;;;;18.73;10.73;;;-0.40;52.10;;;;;;5050596;28;20265;-87
2022/03/12 04:23:43;;;;;;;17.63;10.95;;;-0.40;52.30;;;;;;5057622;28;20179;-87
2022/03/12 04:26:10;;;;;;;15.23;11.07;;;-0.40;52.60;;;;;;5058063;28;20195;-88
2022/03/12 04:28:39;;;;;;;17.08;10.15;;;-0.30;52.50;;;;;;5046931;28;20577;-86
2022/03/12 04:31:07;;;;;;;17.75;10.00;;;-0.50;52.60;;;;;;5043746;28;20200;-87
2022/03/12 04:33:35;;;;;;;16.70;9.98;;;-0.50;53.20;;;;;;5044705;28;20215;-86
2022/03/12 04:36:04;;;;;;;21.77;11.35;;;-0.50;53.10;;;;;;5040997;28;20441;-88
2022/03/12 04:38:32;;;;;;;19.38;10.90;;;-0.50;53.10;;;;;;5042384;28;20223;-85
2022/03/12 04:40:59;;;;;;;17.25;11.35;;;-0.60;53.20;;;;;;5073395;22;20293;-86
2022/03/12 04:43:28;;;;;;;20.83;11.10;;;-0.60;53.40;;;;;;5041895;28;20210;-84
2022/03/12 04:45:55;;;;;;;17.40;10.65;;;-1.00;53.60;;;;;;5042288;28;20207;-84
2022/03/12 04:48:23;;;;;;;17.52;10.63;;;-0.30;69.20;;;;;;5043149;28;20741;-85
2022/03/12 04:50:51;;;;;;;14.98;10.32;;;-0.30;63.40;;;;;;5055187;28;20222;-84
2022/03/12 04:53:18;;;;;;;17.63;10.55;;;-0.60;54.30;;;;;;5058135;28;20324;-84
2022/03/12 04:55:47;;;;;;;16.00;9.98;;;-0.70;54.20;;;;;;5058159;28;20221;-84
2022/03/12 04:58:14;;;;;;;17.55;10.43;;;-0.60;55.00;;;;;;5054857;28;20199;-82
2022/03/12 05:00:42;;;;;;;19.15;11.85;;;-0.60;54.60;;;;;;5045761;28;20234;-82
2022/03/12 05:03:10;;;;;;;15.45;11.07;;;-0.60;54.80;;;;;;5054584;28;20214;-85
2022/03/12 05:05:39;;;;;;;23.38;10.88;;;-0.50;54.70;;;;;;5050481;28;20681;-85
2022/03/12 05:08:07;;;;;;;15.10;10.73;;;-0.50;55.10;;;;;;5049026;28;20286;-85
2022/03/12 05:10:34;;;;;;;16.63;11.13;;;-0.50;65.20;;;;;;5046750;28;20234;-84
2022/03/12 05:13:04;;;;;;;20.10;9.38;;;-0.80;74.20;;;;;;5045022;28;20220;-85
2022/03/12 05:15:37;;;;;;;21.17;11.57;;;-0.60;55.10;;;;;;5038086;28;20286;-86
2022/03/12 05:18:06;;;;;;;17.67;11.15;;;-0.60;55.70;;;;;;5038794;28;20242;-84
2022/03/12 05:20:34;;;;;;;17.38;11.82;;;-0.60;56.00;;;;;;5039746;28;20598;-84
2022/03/12 05:23:00;;;;;;;19.40;11.07;;;-0.60;55.90;;;;;;5040849;28;20207;-83
2022/03/12 05:25:27;;;;;;;26.20;15.63;;;-0.60;56.00;;;;;;5051307;28;20226;-84
2022/03/12 05:27:55;;;;;;;24.67;13.27;;;-0.60;56.00;;;;;;5056370;28;20214;-84
2022/03/12 05:30:27;;;;;;;25.48;12.48;;;-0.60;56.40;;;;;;5052406;28;20227;-84
2022/03/12 05:32:54;;;;;;;24.45;13.05;;;-0.30;67.50;;;;;;5046566;28;20220;-83
2022/03/12 05:35:23;;;;;;;25.05;14.60;;;-0.50;56.50;;;;;;5045039;28;20211;-84
2022/03/12 05:37:52;;;;;;;29.15;15.63;;;-0.60;56.50;;;;;;5046776;28;20299;-84
2022/03/12 05:40:20;;;;;;;41.20;19.35;;;-0.50;78.20;;;;;;5044000;28;20235;-84
2022/03/12 05:42:48;;;;;;;33.80;17.02;;;-0.60;57.20;;;;;;5044396;28;20222;-84
2022/03/12 05:45:18;;;;;;;39.25;17.90;;;-0.60;57.10;;;;;;5043388;28;20224;-85
2022/03/12 05:47:47;;;;;;;31.35;17.88;;;-0.60;57.70;;;;;;5044155;28;20206;-85
2022/03/12 05:50:14;;;;;;;28.10;13.77;;;-0.60;57.30;;;;;;5044826;28;20231;-85
2022/03/12 05:52:43;;;;;;;21.58;12.23;;;-0.50;80.00;;;;;;5054666;28;20313;-82
2022/03/12 05:55:11;;;;;;;25.75;12.85;;;-0.60;57.80;;;;;;5058021;28;20277;-82
2022/03/12 05:57:38;;;;;;;25.30;12.65;;;-0.30;80.20;;;;;;5057599;28;20199;-83
2022/03/12 06:00:08;;;;;;;16.92;11.80;;;-0.60;57.60;;;;;;5057968;28;20230;-83
2022/03/12 06:02:35;;;;;;;19.52;10.90;;;-0.60;57.90;;;;;;5056504;28;20196;-83
2022/03/12 06:05:03;;;;;;;18.65;11.25;;;-0.60;80.10;;;;;;5042535;28;20210;-82
2022/03/12 06:07:31;;;;;;;19.85;11.48;;;-0.50;57.90;;;;;;5053013;28;20196;-82
2022/03/12 06:09:58;;;;;;;17.35;11.80;;;-0.50;57.80;;;;;;5054172;28;20234;-83
2022/03/12 06:12:26;;;;;;;25.73;12.57;;;-0.50;57.70;;;;;;5045893;28;20216;-84
2022/03/12 06:14:55;;;;;;;21.85;12.50;;;-0.40;57.80;;;;;;5047747;28;20204;-84
2022/03/12 06:17:24;;;;;;;16.20;10.25;;;-0.40;58.50;;;;;;5048764;28;20675;-83
2022/03/12 06:19:51;;;;;;;17.60;12.27;;;-0.40;57.90;;;;;;5048624;28;20220;-82
2022/03/12 06:22:19;;;;;;;23.40;13.88;;;-0.40;58.00;;;;;;5046875;28;20200;-84
2022/03/12 06:24:46;;;;;;;20.40;12.98;;;-0.50;80.30;;;;;;5051495;28;20202;-83
2022/03/12 06:27:13;;;;;;;22.20;10.80;;;-0.20;58.80;;;;;;5046367;28;20208;-84
2022/03/12 06:29:40;;;;;;;23.17;12.13;;;-0.10;80.90;;;;;;5056754;28;20234;-81
2022/03/12 06:32:08;;;;;;;16.30;11.10;;;-0.20;57.80;;;;;;5056291;28;20267;-82
2022/03/12 06:34:35;;;;;;;20.33;11.05;;;-0.10;80.20;;;;;;5050148;28;20231;-84
2022/03/12 06:37:03;;;;;;;21.27;12.45;;;-0.10;57.90;;;;;;5044809;28;20268;-83
2022/03/12 06:39:31;;;;;;;19.65;11.85;;;-0.10;58.20;;;;;;5042915;28;20848;-84
2022/03/12 06:41:58;;;;;;;22.55;13.02;;;0.00;58.10;;;;;;5046059;28;20287;-84
2022/03/12 06:44:32;;;;;;;20.73;11.10;;;0.10;58.00;;;;;;5057563;28;20199;-84
2022/03/12 06:47:00;;;;;;;22.50;11.73;;;0.10;57.50;;;;;;5058192;28;20195;-83
2022/03/12 06:49:27;;;;;;;18.70;11.52;;;0.10;58.10;;;;;;5052506;28;20239;-85
2022/03/12 06:51:53;;;;;;;21.48;11.02;;;0.20;58.00;;;;;;5045056;28;20215;-85
2022/03/12 06:54:20;;;;;;;20.45;12.20;;;0.10;78.90;;;;;;5045511;28;20219;-84
2022/03/12 06:56:49;;;;;;;19.85;12.27;;;0.40;57.70;;;;;;5052131;28;20204;-84
2022/03/12 06:59:15;;;;;;;22.70;11.25;;;0.60;77.60;;;;;;5059688;28;20211;-84
2022/03/12 07:01:42;;;;;;;21.38;11.15;;;0.50;57.20;;;;;;5059821;28;20200;-85
2022/03/12 07:04:10;;;;;;;22.70;13.05;;;0.60;57.20;;;;;;5059922;28;20286;-84
2022/03/12 07:06:37;;;;;;;16.33;11.70;;;0.70;57.10;;;;;;5060052;28;20204;-85
2022/03/12 07:09:05;;;;;;;21.45;12.18;;;0.70;67.00;;;;;;5059667;28;20188;-84
2022/03/12 07:11:32;;;;;;;20.83;11.75;;;0.80;57.60;;;;;;5056830;28;20369;-82
2022/03/12 07:14:00;;;;;;;22.02;13.27;;;0.90;56.40;;;;;;5047444;28;20224;-84
2022/03/12 07:16:27;;;;;;;23.48;13.65;;;1.00;56.00;;;;;;5046918;28;20211;-83
2022/03/12 07:18:54;;;;;;;24.10;13.43;;;1.20;69.80;;;;;;5046338;28;20303;-84
2022/03/12 07:21:21;;;;;;;21.55;13.05;;;1.30;56.10;;;;;;5043826;28;20210;-83
2022/03/12 07:23:48;;;;;;;25.63;14.35;;;1.30;55.40;;;;;;5047433;28;20250;-84
2022/03/12 07:26:15;;;;;;;14.75;10.85;;;1.40;55.20;;;;;;5043649;28;20200;-83
2022/03/12 07:28:42;;;;;;;18.85;11.63;;;1.40;55.90;;;;;;5044135;28;20269;-84
2022/03/12 07:31:11;;;;;;;17.60;11.35;;;1.60;55.40;;;;;;5044436;28;20224;-83
2022/03/12 07:33:39;;;;;;;15.23;10.23;;;1.70;55.10;;;;;;5045503;28;20610;-83
2022/03/12 07:36:06;;;;;;;15.75;10.52;;;1.70;72.20;;;;;;5044387;28;20200;-84
2022/03/12 07:38:33;;;;;;;16.70;10.02;;;1.90;53.60;;;;;;5048933;28;20211;-83
2022/03/12 07:41:00;;;;;;;17.48;9.80;;;2.00;52.80;;;;;;5048564;28;20232;-83
2022/03/12 07:43:27;;;;;;;15.98;10.07;;;2.10;52.50;;;;;;5048269;28;20204;-85
2022/03/12 07:45:54;;;;;;;12.70;8.20;;;2.20;51.70;;;;;;5047254;28;20207;-84
2022/03/12 07:48:22;;;;;;;15.02;10.70;;;2.20;50.70;;;;;;5049948;28;20207;-84
2022/03/12 07:50:49;;;;;;;11.40;9.63;;;2.30;50.20;;;;;;5050003;28;20228;-84
2022/03/12 07:53:17;;;;;;;16.75;10.60;;;2.70;67.80;;;;;;5053238;28;20251;-84
2022/03/12 07:55:43;;;;;;;13.90;10.00;;;2.50;51.00;;;;;;5053889;28;20208;-84
2022/03/12 07:58:10;;;;;;;17.02;10.50;;;2.60;50.30;;;;;;5054836;28;20204;-85
2022/03/12 08:00:37;;;;;;;14.38;9.88;;;2.50;49.60;;;;;;5054005;28;20289;-84
2022/03/12 08:03:05;;;;;;;17.48;9.82;;;2.60;48.70;;;;;;5053064;28;20623;-83
2022/03/12 08:05:33;;;;;;;16.88;12.68;;;2.90;64.80;;;;;;5053811;28;20234;-85
2022/03/12 08:08:00;;;;;;;12.23;8.95;;;2.80;47.90;;;;;;5052910;28;20241;-86
2022/03/12 08:10:27;;;;;;;23.17;11.57;;;3.00;61.50;;;;;;5049134;28;20228;-85
2022/03/12 08:12:54;;;;;;;15.10;10.35;;;2.90;48.70;;;;;;5048719;28;20223;-84
2022/03/12 08:15:21;;;;;;;20.73;10.98;;;3.00;47.70;;;;;;5049162;28;20207;-84
2022/03/12 08:17:48;;;;;;;19.13;11.80;;;3.10;46.80;;;;;;5046961;28;20212;-85
2022/03/12 08:20:17;;;;;;;23.23;11.20;;;3.20;46.50;;;;;;5044547;28;20307;-85
2022/03/12 08:22:46;;;;;;;14.68;9.75;;;3.30;46.50;;;;;;5044465;28;20200;-84
2022/03/12 08:25:14;;;;;;;16.25;10.70;;;3.30;46.40;;;;;;5045522;28;20227;-85
2022/03/12 08:27:41;;;;;;;16.50;10.13;;;3.50;45.80;;;;;;5046192;28;20212;-84
2022/03/12 08:30:09;;;;;;;16.63;10.15;;;3.60;45.10;;;;;;5043625;28;20242;-84
2022/03/12 08:32:38;;;;;;;16.67;11.23;;;3.60;45.40;;;;;;5042915;28;20208;-86
2022/03/12 08:35:09;;;;;;;16.05;10.65;;;3.70;44.50;;;;;;5044443;28;20227;-84
2022/03/12 08:37:36;;;;;;;12.98;9.30;;;4.10;57.90;;;;;;5044335;28;20262;-84
2022/03/12 08:40:06;;;;;;;15.98;11.05;;;3.80;43.90;;;;;;5045451;28;20231;-85
2022/03/12 08:42:33;;;;;;;18.27;10.75;;;3.90;42.80;;;;;;5045693;28;20230;-84
2022/03/12 08:45:00;;;;;;;17.48;10.10;;;4.00;44.50;;;;;;5043685;28;20206;-85
2022/03/12 08:47:27;;;;;;;15.32;9.57;;;4.10;42.30;;;;;;5044109;28;20215;-86
2022/03/12 08:49:53;;;;;;;15.02;9.93;;;4.20;42.50;;;;;;5044023;28;20250;-84
2022/03/12 08:52:20;;;;;;;14.27;9.10;;;4.30;41.60;;;;;;5044870;28;20211;-85
2022/03/12 08:54:47;;;;;;;17.30;8.82;;;4.40;40.90;;;;;;5046587;28;20219;-85
2022/03/12 08:57:29;;;;;;;14.50;9.30;;;4.50;41.10;;;;;;5045336;28;20204;-85
2022/03/12 09:00:01;;;;;;;14.30;8.93;;;;;;;;;;5048562;28;20230;-84
2022/03/12 09:02:29;;;;;;;18.20;9.50;;;;;;;;;;5050408;28;20267;-83
2022/03/12 09:04:56;;;;;;;14.98;9.00;;;;;;;;;;5055963;28;20211;-84
2022/03/12 09:07:25;;;;;;;12.90;8.55;;;4.80;37.70;;;;;;5052594;28;20643;-84
2022/03/12 09:10:07;;;;;;;13.90;8.88;;;5.00;38.70;;;;;;5046813;28;20306;-86
2022/03/12 09:12:42;;;;;;;9.05;6.40;;;5.10;34.90;;;;;;5046315;28;20210;-85
2022/03/12 09:15:10;;;;;;;13.98;7.07;;;6.20;36.30;;;;;;5046561;28;20223;-85
2022/03/12 09:17:38;;;;;;;10.98;6.93;;;;;;;;;;5046965;28;20239;-85
2022/03/12 09:20:14;;;;;;;10.63;7.40;;;5.40;34.70;;;;;;5051150;28;20278;-86
2022/03/12 09:22:47;;;;;;;12.18;6.50;;;5.50;35.10;;;;;;5058295;28;20221;-86
2022/03/12 09:25:21;;;;;;;11.88;7.03;;;4.70;35.40;;;;;;5060339;28;20199;-85
2022/03/12 09:28:09;;;;;;;13.15;7.82;;;5.50;32.10;;;;;;5059862;28;20231;-85
2022/03/12 09:30:38;;;;;;;10.25;6.97;;;;;;;;;;5058965;28;20226;-85
2022/03/12 09:33:09;;;;;;;9.05;6.40;;;5.50;31.80;;;;;;5053533;28;20274;-86
2022/03/12 09:35:45;;;;;;;9.70;6.80;;;5.70;30.30;;;;;;5045622;28;20199;-85
2022/03/12 09:38:16;;;;;;;8.20;6.22;;;;;;;;;;5045663;28;20246;-84
2022/03/12 09:40:50;;;;;;;11.18;6.22;;;5.70;29.60;;;;;;5045897;28;20239;-84
2022/03/12 09:43:19;;;;;;;9.05;6.82;;;6.40;32.80;;;;;;5048281;28;20188;-86
2022/03/12 09:45:51;;;;;;;14.20;6.95;;;5.80;29.10;;;;;;5045859;28;20267;-85
2022/03/12 09:48:27;;;;;;;12.23;6.43;;;5.70;31.60;;;;;;5046992;28;20639;-86
2022/03/12 09:50:53;;;;;;;12.23;7.05;;;6.00;31.70;;;;;;5047602;28;20227;-84
2022/03/12 09:53:27;;;;;;;11.70;6.80;;;6.10;29.20;;;;;;5046814;28;20315;-85
2022/03/12 09:55:59;;;;;;;9.27;7.05;;;6.10;28.50;;;;;;5046610;28;20206;-85
2022/03/12 09:58:46;;;;;;;10.88;6.10;;;6.20;28.80;;;;;;5047626;28;20290;-85
2022/03/12 10:01:18;;;;;;;7.88;7.03;;;6.10;28.90;;;;;;5051096;28;20804;-85
2022/03/12 10:03:45;;;;;;;11.57;7.00;;;;;;;;;;5060285;28;20176;-85
2022/03/12 10:06:15;;;;;;;8.98;6.80;;;6.30;34.70;;;;;;5060579;28;20180;-85
2022/03/12 10:08:45;;;;;;;9.13;6.63;;;6.30;30.80;;;;;;5060759;28;20188;-84
2022/03/12 10:11:18;;;;;;;12.35;6.50;;;6.10;29.10;;;;;;5060452;28;20271;-85
2022/03/12 10:13:46;;;;;;;12.70;7.38;;;6.40;28.90;;;;;;5060071;28;20199;-84
2022/03/12 10:16:14;;;;;;;8.55;7.70;;;;;;;;;;5060285;28;20219;-84
2022/03/12 10:18:41;;;;;;;6.45;5.80;;;;;;;;;;5060476;28;20247;-84
2022/03/12 10:21:08;;;;;;;11.40;6.65;;;6.50;28.10;;;;;;5054796;28;20238;-83
2022/03/12 10:23:39;;;;;;;8.77;6.43;;;6.60;28.70;;;;;;5056702;28;20222;-85
2022/03/12 10:26:07;;;;;;;9.10;5.97;;;;;;;;;;5058126;28;20203;-84
2022/03/12 10:28:36;;;;;;;8.43;6.32;;;6.70;28.40;;;;;;5055703;28;20207;-85
2022/03/12 10:31:05;;;;;;;8.52;6.15;;;7.00;41.30;;;;;;5054696;28;20258;-85
2022/03/12 10:33:33;;;;;;;9.43;6.65;;;6.90;27.80;;;;;;5048776;28;20204;-85
2022/03/12 10:36:11;;;;;;;9.98;6.97;;;7.00;27.50;;;;;;5049823;28;20200;-84
2022/03/12 10:38:40;;;;;;;10.63;6.70;;;7.00;27.80;;;;;;5048415;28;20207;-85
2022/03/12 10:44:07;;;;;;;9.98;6.22;;;6.80;28.50;;;;;;5058477;28;20226;-86
2022/03/12 10:49:30;;;;;;;6.88;5.53;;;7.20;25.90;;;;;;5056733;28;20218;-85
2022/03/12 10:51:58;;;;;;;15.88;6.43;;;7.30;26.80;;;;;;5054335;28;20219;-87
2022/03/12 10:54:44;;;;;;;9.40;6.72;;;7.40;26.40;;;;;;5056032;28;20257;-86
2022/03/12 10:57:12;;;;;;;8.25;6.70;;;;;;;;;;5058162;28;20251;-86
2022/03/12 10:59:52;;;;;;;8.10;5.70;;;7.50;26.80;;;;;;5055389;28;20703;-87
2022/03/12 11:02:22;;;;;;;10.32;6.53;;;7.50;26.90;;;;;;5046671;28;20196;-87
2022/03/12 11:05:04;;;;;;;10.02;6.20;;;7.70;25.90;;;;;;5048010;28;20204;-86
2022/03/12 11:07:31;;;;;;;8.20;6.25;;;;;;;;;;5047012;28;20279;-87
2022/03/12 11:10:00;;;;;;;10.68;6.60;;;;;;;;;;5051844;28;20251;-87
2022/03/12 11:12:35;;;;;;;9.98;5.70;;;7.70;26.20;;;;;;5051070;28;20266;-87
2022/03/12 11:15:11;;;;;;;19.50;6.78;;;7.80;25.50;;;;;;5049267;28;20241;-87
2022/03/12 11:17:59;;;;;;;7.70;5.60;;;8.00;28.60;;;;;;5052922;28;20236;-86
2022/03/12 11:20:32;;;;;;;10.65;6.28;;;7.90;35.00;;;;;;5051596;28;20577;-87
2022/03/12 11:23:07;;;;;;;7.10;5.95;;;8.10;26.20;;;;;;5051704;28;20181;-87
2022/03/12 11:25:36;;;;;;;6.45;5.25;;;8.20;26.30;;;;;;5046093;28;20184;-87
2022/03/12 11:28:18;;;;;;;7.20;6.10;;;8.20;24.40;;;;;;5049069;28;20231;-86
2022/03/12 11:30:45;;;;;;;7.72;5.90;;;8.20;25.00;;;;;;5048774;28;20467;-87
2022/03/12 11:33:22;;;;;;;10.20;6.25;;;8.40;26.20;;;;;;5049122;28;20562;-87
2022/03/12 11:35:58;;;;;;;6.25;5.65;;;8.50;24.90;;;;;;5048564;28;20214;-87
2022/03/12 11:38:25;;;;;;;9.00;7.03;;;8.50;25.40;;;;;;5050164;28;20218;-88
2022/03/12 11:41:01;;;;;;;7.40;5.43;;;8.50;25.00;;;;;;5049644;28;20520;-88
2022/03/12 11:43:33;;;;;;;6.37;5.37;;;8.60;25.40;;;;;;5051351;28;20382;-87
2022/03/12 11:46:04;;;;;;;7.67;5.93;;;8.50;22.90;;;;;;5051763;28;20439;-86
2022/03/12 11:48:38;;;;;;;12.27;7.70;;;8.60;33.60;;;;;;5055468;28;20415;-88
2022/03/12 11:51:17;;;;;;;9.90;6.30;;;8.70;23.70;;;;;;5052366;28;20470;-86
2022/03/12 11:54:12;;;;;;;7.97;7.00;;;8.80;23.10;;;;;;5052672;28;20418;-88
2022/03/12 11:56:39;;;;;;;9.73;6.83;;;;;;;;;;5051648;28;20927;-87
2022/03/12 11:59:10;;;;;;;10.47;6.83;;;8.90;23.20;;;;;;5050665;28;20917;-88
2022/03/12 12:02:01;;;;;;;10.95;6.88;;;9.00;29.80;;;;;;5054516;28;20483;-88
2022/03/12 12:04:43;;;;;;;10.33;7.40;;;9.00;23.60;;;;;;5056899;28;20185;-88
2022/03/12 12:07:16;;;;;;;13.40;6.57;;;9.20;33.50;;;;;;5057848;28;20480;-88
2022/03/12 12:09:44;;;;;;;6.18;4.97;;;9.40;24.70;;;;;;5051843;28;21019;-86
2022/03/12 12:15:01;;;;;;;8.27;6.00;;;;;;;;;;5051633;28;20463;-88
2022/03/12 12:17:28;;;;;;;12.13;6.10;;;;;;;;;;5046970;28;20411;-87
2022/03/12 12:19:57;;;;;;;7.40;6.20;;;8.90;31.90;;;;;;5047462;28;20470;-86
2022/03/12 12:22:25;;;;;;;6.37;5.33;;;9.20;23.20;;;;;;5044863;28;20481;-86
2022/03/12 12:24:53;;;;;;;8.80;6.53;;;9.10;23.40;;;;;;5044030;28;20432;-87
2022/03/12 12:27:23;;;;;;;6.73;5.80;;;9.10;23.00;;;;;;5046122;28;20461;-87
2022/03/12 12:29:55;;;;;;;6.43;5.83;;;9.30;23.20;;;;;;5044487;28;20451;-86
2022/03/12 12:32:23;;;;;;;9.00;7.00;;;9.40;23.30;;;;;;5046845;28;20484;-86
2022/03/12 12:35:15;;;;;;;10.37;6.07;;;9.30;23.50;;;;;;5051223;28;20468;-87
2022/03/12 12:37:48;;;;;;;8.23;6.40;;;9.40;25.30;;;;;;5043630;28;20415;-87
2022/03/12 12:40:47;;;;;;;9.00;6.57;;;9.50;22.50;;;;;;5054703;28;20455;-87
2022/03/12 12:43:18;;;;;;;9.30;6.40;;;9.60;22.60;;;;;;5053629;28;20460;-87
2022/03/12 12:46:08;;;;;;;8.30;6.10;;;9.70;23.10;;;;;;5049862;28;20432;-87
2022/03/12 12:48:38;;;;;;;9.47;5.60;;;9.80;23.00;;;;;;5051185;28;20452;-86
2022/03/12 12:51:15;;;;;;;8.30;6.50;;;9.80;22.20;;;;;;5047411;28;20486;-87
2022/03/12 12:53:43;;;;;;;7.33;6.60;;;9.80;24.50;;;;;;5045521;28;20412;-88
2022/03/12 12:56:22;;;;;;;6.60;5.47;;;10.10;32.20;;;;;;5045691;28;20466;-87
2022/03/12 12:59:08;;;;;;;7.97;6.03;;;9.90;22.90;;;;;;5050983;28;20415;-86
2022/03/12 13:01:50;;;;;;;7.17;6.27;;;9.90;23.90;;;;;;5056292;28;20483;-88
2022/03/12 13:04:40;;;;;;;10.40;5.43;;;9.90;24.00;;;;;;5056189;28;20419;-88
2022/03/12 13:07:25;;;;;;;7.80;5.80;;;9.80;31.20;;;;;;5056537;28;20491;-87